sensor_id;sensor_type;location;lat;lon;timestamp;temperature;humidity
81895;DHT22;71358;45.642;13.758;2023-12-20T00:02:33;22.90;47.40
81895;DHT22;71358;45.642;13.758;2023-12-20T00:05:17;23.00;47.30
81895;DHT22;71358;45.642;13.758;2023-12-20T00:08:02;22.90;47.10
81895;DHT22;71358;45.642;13.758;2023-12-20T00:10:46;22.90;47.00
81895;DHT22;71358;45.642;13.758;2023-12-20T00:13:31;22.90;47.10
81895;DHT22;71358;45.642;13.758;2023-12-20T00:16:15;22.90;47.00
81895;DHT22;71358;45.642;13.758;2023-12-20T00:19:01;22.90;47.00
81895;DHT22;71358;45.642;13.758;2023-12-20T00:21:45;22.90;46.90
81895;DHT22;71358;45.642;13.758;2023-12-20T00:24:30;22.90;46.90
81895;DHT22;71358;45.642;13.758;2023-12-20T00:27:15;22.90;46.90
81895;DHT22;71358;45.642;13.758;2023-12-20T00:29:59;22.90;46.90
81895;DHT22;71358;45.642;13.758;2023-12-20T00:32:44;22.90;46.90
81895;DHT22;71358;45.642;13.758;2023-12-20T00:35:30;22.90;46.90
81895;DHT22;71358;45.642;13.758;2023-12-20T00:38:14;22.90;46.90
81895;DHT22;71358;45.642;13.758;2023-12-20T00:40:59;22.90;46.80
81895;DHT22;71358;45.642;13.758;2023-12-20T00:43:44;22.80;46.80
81895;DHT22;71358;45.642;13.758;2023-12-20T00:46:28;22.90;46.80
81895;DHT22;71358;45.642;13.758;2023-12-20T00:49:13;22.80;46.70
81895;DHT22;71358;45.642;13.758;2023-12-20T00:51:57;22.90;46.70
81895;DHT22;71358;45.642;13.758;2023-12-20T00:54:43;22.90;46.70
81895;DHT22;71358;45.642;13.758;2023-12-20T00:57:27;22.80;46.50
81895;DHT22;71358;45.642;13.758;2023-12-20T01:00:12;22.80;46.40
81895;DHT22;71358;45.642;13.758;2023-12-20T01:02:57;22.80;46.30
81895;DHT22;71358;45.642;13.758;2023-12-20T01:05:42;22.80;46.10
81895;DHT22;71358;45.642;13.758;2023-12-20T01:08:26;22.80;46.10
81895;DHT22;71358;45.642;13.758;2023-12-20T01:11:11;22.80;46.00
81895;DHT22;71358;45.642;13.758;2023-12-20T01:13:56;22.80;45.90
81895;DHT22;71358;45.642;13.758;2023-12-20T01:16:40;22.80;45.80
81895;DHT22;71358;45.642;13.758;2023-12-20T01:19:25;22.70;45.80
81895;DHT22;71358;45.642;13.758;2023-12-20T01:22:10;22.80;45.90
81895;DHT22;71358;45.642;13.758;2023-12-20T01:24:55;22.70;45.80
81895;DHT22;71358;45.642;13.758;2023-12-20T01:27:40;22.70;45.80
81895;DHT22;71358;45.642;13.758;2023-12-20T01:30:24;22.70;45.80
81895;DHT22;71358;45.642;13.758;2023-12-20T01:33:09;22.70;45.90
81895;DHT22;71358;45.642;13.758;2023-12-20T01:35:53;22.70;45.90
81895;DHT22;71358;45.642;13.758;2023-12-20T01:38:38;22.70;45.80
81895;DHT22;71358;45.642;13.758;2023-12-20T01:41:22;22.70;45.80
81895;DHT22;71358;45.642;13.758;2023-12-20T01:44:07;22.70;45.80
81895;DHT22;71358;45.642;13.758;2023-12-20T01:46:51;22.70;45.70
81895;DHT22;71358;45.642;13.758;2023-12-20T01:49:36;22.70;45.60
81895;DHT22;71358;45.642;13.758;2023-12-20T01:52:21;22.70;45.50
81895;DHT22;71358;45.642;13.758;2023-12-20T01:55:06;22.70;45.50
81895;DHT22;71358;45.642;13.758;2023-12-20T01:57:57;22.60;45.40
81895;DHT22;71358;45.642;13.758;2023-12-20T02:00:42;22.60;45.40
81895;DHT22;71358;45.642;13.758;2023-12-20T02:03:26;22.60;45.40
81895;DHT22;71358;45.642;13.758;2023-12-20T02:06:11;22.60;45.50
81895;DHT22;71358;45.642;13.758;2023-12-20T02:08:56;22.60;45.60
81895;DHT22;71358;45.642;13.758;2023-12-20T02:11:41;22.60;45.60
81895;DHT22;71358;45.642;13.758;2023-12-20T02:14:26;22.60;45.60
81895;DHT22;71358;45.642;13.758;2023-12-20T02:17:10;22.60;45.60
81895;DHT22;71358;45.642;13.758;2023-12-20T02:19:55;22.60;45.70
81895;DHT22;71358;45.642;13.758;2023-12-20T02:22:39;22.60;45.80
81895;DHT22;71358;45.642;13.758;2023-12-20T02:25:24;22.60;45.80
81895;DHT22;71358;45.642;13.758;2023-12-20T02:28:08;22.60;45.80
81895;DHT22;71358;45.642;13.758;2023-12-20T02:30:53;22.60;45.80
81895;DHT22;71358;45.642;13.758;2023-12-20T02:33:38;22.60;45.70
81895;DHT22;71358;45.642;13.758;2023-12-20T02:36:23;22.60;45.60
81895;DHT22;71358;45.642;13.758;2023-12-20T02:39:08;22.60;45.60
81895;DHT22;71358;45.642;13.758;2023-12-20T02:41:52;22.60;45.60
81895;DHT22;71358;45.642;13.758;2023-12-20T02:44:37;22.60;45.50
81895;DHT22;71358;45.642;13.758;2023-12-20T02:47:21;22.60;46.10
81895;DHT22;71358;45.642;13.758;2023-12-20T02:50:06;22.50;45.30
81895;DHT22;71358;45.642;13.758;2023-12-20T02:52:51;22.50;45.20
81895;DHT22;71358;45.642;13.758;2023-12-20T02:55:35;22.50;45.20
81895;DHT22;71358;45.642;13.758;2023-12-20T02:58:20;22.50;45.10
81895;DHT22;71358;45.642;13.758;2023-12-20T03:01:04;22.50;45.10
81895;DHT22;71358;45.642;13.758;2023-12-20T03:03:49;22.50;45.80
81895;DHT22;71358;45.642;13.758;2023-12-20T03:06:34;22.50;45.20
81895;DHT22;71358;45.642;13.758;2023-12-20T03:09:19;22.50;45.20
81895;DHT22;71358;45.642;13.758;2023-12-20T03:12:03;22.50;45.20
81895;DHT22;71358;45.642;13.758;2023-12-20T03:14:48;22.50;45.30
81895;DHT22;71358;45.642;13.758;2023-12-20T03:17:33;22.50;45.30
81895;DHT22;71358;45.642;13.758;2023-12-20T03:20:18;22.50;45.30
81895;DHT22;71358;45.642;13.758;2023-12-20T03:23:03;22.50;45.40
81895;DHT22;71358;45.642;13.758;2023-12-20T03:25:48;22.40;45.40
81895;DHT22;71358;45.642;13.758;2023-12-20T03:28:33;22.50;45.50
81895;DHT22;71358;45.642;13.758;2023-12-20T03:31:17;22.50;45.60
81895;DHT22;71358;45.642;13.758;2023-12-20T03:34:02;22.50;45.60
81895;DHT22;71358;45.642;13.758;2023-12-20T03:36:46;22.50;45.70
81895;DHT22;71358;45.642;13.758;2023-12-20T03:39:32;22.50;45.70
81895;DHT22;71358;45.642;13.758;2023-12-20T03:42:16;22.50;45.70
81895;DHT22;71358;45.642;13.758;2023-12-20T03:45:01;22.50;45.80
81895;DHT22;71358;45.642;13.758;2023-12-20T03:47:45;22.50;45.80
81895;DHT22;71358;45.642;13.758;2023-12-20T03:50:30;22.50;45.80
81895;DHT22;71358;45.642;13.758;2023-12-20T03:53:14;22.50;45.90
81895;DHT22;71358;45.642;13.758;2023-12-20T03:55:59;22.50;45.90
81895;DHT22;71358;45.642;13.758;2023-12-20T03:58:44;22.50;45.90
81895;DHT22;71358;45.642;13.758;2023-12-20T04:01:28;22.50;45.90
81895;DHT22;71358;45.642;13.758;2023-12-20T04:04:13;22.50;45.80
81895;DHT22;71358;45.642;13.758;2023-12-20T04:06:58;22.50;45.80
81895;DHT22;71358;45.642;13.758;2023-12-20T04:09:42;22.40;45.70
81895;DHT22;71358;45.642;13.758;2023-12-20T04:12:31;22.40;45.60
81895;DHT22;71358;45.642;13.758;2023-12-20T04:15:15;22.40;45.50
81895;DHT22;71358;45.642;13.758;2023-12-20T04:18:00;22.40;45.40
81895;DHT22;71358;45.642;13.758;2023-12-20T04:20:44;22.40;45.40
81895;DHT22;71358;45.642;13.758;2023-12-20T04:23:29;22.40;45.40
81895;DHT22;71358;45.642;13.758;2023-12-20T04:26:14;22.40;45.40
81895;DHT22;71358;45.642;13.758;2023-12-20T04:28:59;22.40;45.40
81895;DHT22;71358;45.642;13.758;2023-12-20T04:31:43;22.40;45.40
81895;DHT22;71358;45.642;13.758;2023-12-20T04:34:28;22.40;45.30
81895;DHT22;71358;45.642;13.758;2023-12-20T04:37:12;22.40;45.30
81895;DHT22;71358;45.642;13.758;2023-12-20T04:39:57;22.40;45.40
81895;DHT22;71358;45.642;13.758;2023-12-20T04:42:41;22.40;45.50
81895;DHT22;71358;45.642;13.758;2023-12-20T04:45:26;22.40;45.50
81895;DHT22;71358;45.642;13.758;2023-12-20T04:48:10;22.40;45.70
81895;DHT22;71358;45.642;13.758;2023-12-20T04:50:55;22.40;45.70
81895;DHT22;71358;45.642;13.758;2023-12-20T04:53:39;22.40;45.60
81895;DHT22;71358;45.642;13.758;2023-12-20T04:56:24;22.40;45.60
81895;DHT22;71358;45.642;13.758;2023-12-20T04:59:09;22.40;45.50
81895;DHT22;71358;45.642;13.758;2023-12-20T05:01:53;22.40;45.50
81895;DHT22;71358;45.642;13.758;2023-12-20T05:04:38;22.40;45.50
81895;DHT22;71358;45.642;13.758;2023-12-20T05:07:22;22.30;45.60
81895;DHT22;71358;45.642;13.758;2023-12-20T05:10:07;22.40;45.70
81895;DHT22;71358;45.642;13.758;2023-12-20T05:12:52;22.40;45.70
81895;DHT22;71358;45.642;13.758;2023-12-20T05:15:37;22.40;45.70
81895;DHT22;71358;45.642;13.758;2023-12-20T05:18:22;22.40;45.70
81895;DHT22;71358;45.642;13.758;2023-12-20T05:21:07;22.40;45.70
81895;DHT22;71358;45.642;13.758;2023-12-20T05:23:51;22.40;45.70
81895;DHT22;71358;45.642;13.758;2023-12-20T05:26:36;22.40;45.70
81895;DHT22;71358;45.642;13.758;2023-12-20T05:29:20;22.30;45.70
81895;DHT22;71358;45.642;13.758;2023-12-20T05:32:05;22.30;45.60
81895;DHT22;71358;45.642;13.758;2023-12-20T05:34:50;22.30;45.60
81895;DHT22;71358;45.642;13.758;2023-12-20T05:37:34;22.30;45.60
81895;DHT22;71358;45.642;13.758;2023-12-20T05:40:19;22.30;45.50
81895;DHT22;71358;45.642;13.758;2023-12-20T05:43:03;22.30;45.60
81895;DHT22;71358;45.642;13.758;2023-12-20T05:45:48;22.30;45.50
81895;DHT22;71358;45.642;13.758;2023-12-20T05:48:33;22.30;45.60
81895;DHT22;71358;45.642;13.758;2023-12-20T05:51:17;22.30;45.60
81895;DHT22;71358;45.642;13.758;2023-12-20T05:54:02;22.30;45.60
81895;DHT22;71358;45.642;13.758;2023-12-20T05:56:47;22.30;45.60
81895;DHT22;71358;45.642;13.758;2023-12-20T05:59:31;22.30;45.50
81895;DHT22;71358;45.642;13.758;2023-12-20T06:02:16;22.30;45.40
81895;DHT22;71358;45.642;13.758;2023-12-20T06:05:00;22.30;45.30
81895;DHT22;71358;45.642;13.758;2023-12-20T06:07:45;22.30;45.10
81895;DHT22;71358;45.642;13.758;2023-12-20T06:10:32;22.30;44.90
81895;DHT22;71358;45.642;13.758;2023-12-20T06:13:17;22.20;44.70
81895;DHT22;71358;45.642;13.758;2023-12-20T06:16:01;22.20;44.70
81895;DHT22;71358;45.642;13.758;2023-12-20T06:18:46;22.20;44.60
81895;DHT22;71358;45.642;13.758;2023-12-20T06:21:30;22.20;44.60
81895;DHT22;71358;45.642;13.758;2023-12-20T06:24:15;22.20;44.60
81895;DHT22;71358;45.642;13.758;2023-12-20T06:26:59;22.20;44.50
81895;DHT22;71358;45.642;13.758;2023-12-20T06:29:44;22.20;44.50
81895;DHT22;71358;45.642;13.758;2023-12-20T06:32:29;22.20;44.40
81895;DHT22;71358;45.642;13.758;2023-12-20T06:35:13;22.20;44.40
81895;DHT22;71358;45.642;13.758;2023-12-20T06:37:58;22.20;44.50
81895;DHT22;71358;45.642;13.758;2023-12-20T06:40:42;22.20;44.60
81895;DHT22;71358;45.642;13.758;2023-12-20T06:43:27;22.20;44.60
81895;DHT22;71358;45.642;13.758;2023-12-20T06:46:12;22.10;44.60
81895;DHT22;71358;45.642;13.758;2023-12-20T06:48:57;22.10;44.70
81895;DHT22;71358;45.642;13.758;2023-12-20T06:51:42;22.10;44.90
81895;DHT22;71358;45.642;13.758;2023-12-20T06:54:26;22.10;45.10
81895;DHT22;71358;45.642;13.758;2023-12-20T06:57:11;22.10;45.20
81895;DHT22;71358;45.642;13.758;2023-12-20T06:59:56;22.10;45.40
81895;DHT22;71358;45.642;13.758;2023-12-20T07:02:41;22.20;46.10
81895;DHT22;71358;45.642;13.758;2023-12-20T07:05:25;22.20;45.50
81895;DHT22;71358;45.642;13.758;2023-12-20T07:08:10;22.20;45.50
81895;DHT22;71358;45.642;13.758;2023-12-20T07:10:55;22.20;45.30
81895;DHT22;71358;45.642;13.758;2023-12-20T07:13:39;22.20;44.90
81895;DHT22;71358;45.642;13.758;2023-12-20T07:16:24;22.20;45.00
81895;DHT22;71358;45.642;13.758;2023-12-20T07:19:09;22.20;45.10
81895;DHT22;71358;45.642;13.758;2023-12-20T07:21:53;22.20;45.40
81895;DHT22;71358;45.642;13.758;2023-12-20T07:24:38;22.20;45.60
81895;DHT22;71358;45.642;13.758;2023-12-20T07:27:22;22.20;45.70
81895;DHT22;71358;45.642;13.758;2023-12-20T07:30:07;22.30;45.70
81895;DHT22;71358;45.642;13.758;2023-12-20T07:32:52;22.30;45.70
81895;DHT22;71358;45.642;13.758;2023-12-20T07:35:37;22.30;45.80
81895;DHT22;71358;45.642;13.758;2023-12-20T07:38:21;22.30;46.00
81895;DHT22;71358;45.642;13.758;2023-12-20T07:41:06;22.30;46.20
81895;DHT22;71358;45.642;13.758;2023-12-20T07:43:50;22.40;46.50
81895;DHT22;71358;45.642;13.758;2023-12-20T07:46:35;22.40;46.70
81895;DHT22;71358;45.642;13.758;2023-12-20T07:49:20;22.40;46.90
81895;DHT22;71358;45.642;13.758;2023-12-20T07:52:05;22.40;46.90
81895;DHT22;71358;45.642;13.758;2023-12-20T07:54:49;22.40;46.90
81895;DHT22;71358;45.642;13.758;2023-12-20T07:57:30;22.40;47.00
81895;DHT22;71358;45.642;13.758;2023-12-20T08:00:15;22.50;47.10
81895;DHT22;71358;45.642;13.758;2023-12-20T08:03:00;22.50;47.10
81895;DHT22;71358;45.642;13.758;2023-12-20T08:05:47;22.50;47.20
81895;DHT22;71358;45.642;13.758;2023-12-20T08:08:32;22.50;47.20
81895;DHT22;71358;45.642;13.758;2023-12-20T08:11:16;22.50;47.20
81895;DHT22;71358;45.642;13.758;2023-12-20T08:14:02;22.50;47.20
81895;DHT22;71358;45.642;13.758;2023-12-20T08:16:46;22.50;47.20
81895;DHT22;71358;45.642;13.758;2023-12-20T08:19:31;22.50;47.20
81895;DHT22;71358;45.642;13.758;2023-12-20T08:22:15;22.50;47.20
81895;DHT22;71358;45.642;13.758;2023-12-20T08:25:00;22.50;47.10
81895;DHT22;71358;45.642;13.758;2023-12-20T08:27:45;22.50;47.10
81895;DHT22;71358;45.642;13.758;2023-12-20T08:30:30;22.50;47.10
81895;DHT22;71358;45.642;13.758;2023-12-20T08:33:15;22.60;47.10
81895;DHT22;71358;45.642;13.758;2023-12-20T08:35:59;22.60;47.10
81895;DHT22;71358;45.642;13.758;2023-12-20T08:38:44;22.50;47.10
81895;DHT22;71358;45.642;13.758;2023-12-20T08:41:29;22.50;47.10
81895;DHT22;71358;45.642;13.758;2023-12-20T08:44:13;22.50;47.10
81895;DHT22;71358;45.642;13.758;2023-12-20T08:46:58;22.60;47.20
81895;DHT22;71358;45.642;13.758;2023-12-20T08:49:43;22.60;47.40
81895;DHT22;71358;45.642;13.758;2023-12-20T08:52:27;22.60;47.40
81895;DHT22;71358;45.642;13.758;2023-12-20T08:55:13;22.60;48.10
81895;DHT22;71358;45.642;13.758;2023-12-20T08:57:59;22.60;47.60
81895;DHT22;71358;45.642;13.758;2023-12-20T09:00:44;22.60;47.60
81895;DHT22;71358;45.642;13.758;2023-12-20T09:03:29;22.60;47.70
81895;DHT22;71358;45.642;13.758;2023-12-20T09:06:13;22.60;47.70
81895;DHT22;71358;45.642;13.758;2023-12-20T09:08:58;22.60;47.70
81895;DHT22;71358;45.642;13.758;2023-12-20T09:11:43;22.60;47.80
81895;DHT22;71358;45.642;13.758;2023-12-20T09:14:30;22.70;47.80
81895;DHT22;71358;45.642;13.758;2023-12-20T09:17:15;22.60;47.70
81895;DHT22;71358;45.642;13.758;2023-12-20T09:20:00;22.60;47.70
81895;DHT22;71358;45.642;13.758;2023-12-20T09:22:44;22.60;47.70
81895;DHT22;71358;45.642;13.758;2023-12-20T09:25:29;22.60;47.70
81895;DHT22;71358;45.642;13.758;2023-12-20T09:28:13;22.60;47.70
81895;DHT22;71358;45.642;13.758;2023-12-20T09:30:58;22.60;47.70
81895;DHT22;71358;45.642;13.758;2023-12-20T09:33:43;22.60;47.70
81895;DHT22;71358;45.642;13.758;2023-12-20T09:36:27;22.60;47.60
81895;DHT22;71358;45.642;13.758;2023-12-20T09:39:13;22.60;47.40
81895;DHT22;71358;45.642;13.758;2023-12-20T09:42:03;22.60;47.40
81895;DHT22;71358;45.642;13.758;2023-12-20T09:44:48;22.60;47.40
81895;DHT22;71358;45.642;13.758;2023-12-20T09:47:33;22.60;47.40
81895;DHT22;71358;45.642;13.758;2023-12-20T09:50:19;22.60;47.60
81895;DHT22;71358;45.642;13.758;2023-12-20T09:53:05;22.60;47.70
81895;DHT22;71358;45.642;13.758;2023-12-20T09:55:53;22.60;47.70
81895;DHT22;71358;45.642;13.758;2023-12-20T09:58:37;22.60;47.70
81895;DHT22;71358;45.642;13.758;2023-12-20T10:01:28;22.60;47.70
81895;DHT22;71358;45.642;13.758;2023-12-20T10:04:13;22.60;47.70
81895;DHT22;71358;45.642;13.758;2023-12-20T10:07:02;22.60;47.70
81895;DHT22;71358;45.642;13.758;2023-12-20T10:09:48;22.60;47.70
81895;DHT22;71358;45.642;13.758;2023-12-20T10:12:33;22.60;47.70
81895;DHT22;71358;45.642;13.758;2023-12-20T10:15:18;22.60;47.70
81895;DHT22;71358;45.642;13.758;2023-12-20T10:18:03;22.60;47.60
81895;DHT22;71358;45.642;13.758;2023-12-20T10:20:48;22.50;47.60
81895;DHT22;71358;45.642;13.758;2023-12-20T10:23:32;22.60;47.60
81895;DHT22;71358;45.642;13.758;2023-12-20T10:26:23;22.60;47.60
81895;DHT22;71358;45.642;13.758;2023-12-20T10:29:07;22.60;47.60
81895;DHT22;71358;45.642;13.758;2023-12-20T10:31:52;22.50;47.60
81895;DHT22;71358;45.642;13.758;2023-12-20T10:34:41;22.60;47.60
81895;DHT22;71358;45.642;13.758;2023-12-20T10:37:26;22.50;47.50
81895;DHT22;71358;45.642;13.758;2023-12-20T10:40:12;22.50;48.10
81895;DHT22;71358;45.642;13.758;2023-12-20T10:42:58;22.50;47.40
81895;DHT22;71358;45.642;13.758;2023-12-20T10:45:43;22.50;47.40
81895;DHT22;71358;45.642;13.758;2023-12-20T10:48:30;22.50;47.40
81895;DHT22;71358;45.642;13.758;2023-12-20T10:51:17;22.50;47.40
81895;DHT22;71358;45.642;13.758;2023-12-20T10:54:02;22.50;47.40
81895;DHT22;71358;45.642;13.758;2023-12-20T10:56:48;22.50;47.30
81895;DHT22;71358;45.642;13.758;2023-12-20T10:59:37;22.50;47.30
81895;DHT22;71358;45.642;13.758;2023-12-20T11:02:22;22.50;47.30
81895;DHT22;71358;45.642;13.758;2023-12-20T11:08:31;22.50;48.00
81895;DHT22;71358;45.642;13.758;2023-12-20T11:11:28;22.50;47.30
81895;DHT22;71358;45.642;13.758;2023-12-20T11:14:25;22.50;47.30
81895;DHT22;71358;45.642;13.758;2023-12-20T11:17:10;22.50;47.30
81895;DHT22;71358;45.642;13.758;2023-12-20T11:23:04;22.50;47.30
81895;DHT22;71358;45.642;13.758;2023-12-20T11:25:52;22.50;47.30
81895;DHT22;71358;45.642;13.758;2023-12-20T11:28:36;22.50;47.30
81895;DHT22;71358;45.642;13.758;2023-12-20T11:31:21;22.50;47.40
81895;DHT22;71358;45.642;13.758;2023-12-20T11:34:15;22.50;47.40
81895;DHT22;71358;45.642;13.758;2023-12-20T11:37:02;22.50;47.40
81895;DHT22;71358;45.642;13.758;2023-12-20T11:40:00;22.50;47.40
81895;DHT22;71358;45.642;13.758;2023-12-20T11:42:46;22.50;47.50
81895;DHT22;71358;45.642;13.758;2023-12-20T11:45:33;22.50;47.50
81895;DHT22;71358;45.642;13.758;2023-12-20T11:48:18;22.40;47.50
81895;DHT22;71358;45.642;13.758;2023-12-20T11:51:09;22.50;47.60
81895;DHT22;71358;45.642;13.758;2023-12-20T11:53:54;22.40;47.60
81895;DHT22;71358;45.642;13.758;2023-12-20T11:56:39;22.50;47.60
81895;DHT22;71358;45.642;13.758;2023-12-20T11:59:23;22.50;47.70
81895;DHT22;71358;45.642;13.758;2023-12-20T12:02:08;22.50;47.70
81895;DHT22;71358;45.642;13.758;2023-12-20T12:04:52;22.50;48.00
81895;DHT22;71358;45.642;13.758;2023-12-20T12:07:37;22.50;48.20
81895;DHT22;71358;45.642;13.758;2023-12-20T12:10:22;22.50;48.40
81895;DHT22;71358;45.642;13.758;2023-12-20T12:13:06;22.50;48.80
81895;DHT22;71358;45.642;13.758;2023-12-20T12:15:51;22.60;49.80
81895;DHT22;71358;45.642;13.758;2023-12-20T12:18:36;22.60;50.30
81895;DHT22;71358;45.642;13.758;2023-12-20T12:21:21;22.60;50.90
81895;DHT22;71358;45.642;13.758;2023-12-20T12:24:09;22.60;51.10
81895;DHT22;71358;45.642;13.758;2023-12-20T12:26:57;22.60;50.90
81895;DHT22;71358;45.642;13.758;2023-12-20T12:30:01;22.60;50.60
81895;DHT22;71358;45.642;13.758;2023-12-20T12:32:47;22.60;50.40
81895;DHT22;71358;45.642;13.758;2023-12-20T12:35:31;22.60;50.10
81895;DHT22;71358;45.642;13.758;2023-12-20T12:38:15;22.70;50.00
81895;DHT22;71358;45.642;13.758;2023-12-20T12:41:00;22.70;50.00
81895;DHT22;71358;45.642;13.758;2023-12-20T12:43:45;22.70;50.00
81895;DHT22;71358;45.642;13.758;2023-12-20T12:46:29;22.70;50.10
81895;DHT22;71358;45.642;13.758;2023-12-20T12:49:14;22.70;50.30
81895;DHT22;71358;45.642;13.758;2023-12-20T12:51:59;22.60;50.50
81895;DHT22;71358;45.642;13.758;2023-12-20T12:54:43;22.60;50.70
81895;DHT22;71358;45.642;13.758;2023-12-20T12:57:29;22.60;50.90
81895;DHT22;71358;45.642;13.758;2023-12-20T13:00:14;22.60;51.10
81895;DHT22;71358;45.642;13.758;2023-12-20T13:02:58;22.60;51.20
81895;DHT22;71358;45.642;13.758;2023-12-20T13:05:43;22.60;51.40
81895;DHT22;71358;45.642;13.758;2023-12-20T13:08:28;22.60;51.60
81895;DHT22;71358;45.642;13.758;2023-12-20T13:11:13;22.60;51.90
81895;DHT22;71358;45.642;13.758;2023-12-20T13:13:58;22.60;52.10
81895;DHT22;71358;45.642;13.758;2023-12-20T13:16:42;22.60;52.30
81895;DHT22;71358;45.642;13.758;2023-12-20T13:19:27;22.60;52.30
81895;DHT22;71358;45.642;13.758;2023-12-20T13:22:11;22.60;52.60
81895;DHT22;71358;45.642;13.758;2023-12-20T13:24:56;22.60;53.00
81895;DHT22;71358;45.642;13.758;2023-12-20T13:27:41;22.60;53.10
81895;DHT22;71358;45.642;13.758;2023-12-20T13:30:26;22.70;53.30
81895;DHT22;71358;45.642;13.758;2023-12-20T13:33:11;22.70;53.30
81895;DHT22;71358;45.642;13.758;2023-12-20T13:35:55;22.70;53.30
81895;DHT22;71358;45.642;13.758;2023-12-20T13:38:43;22.70;53.20
81895;DHT22;71358;45.642;13.758;2023-12-20T13:41:27;22.60;53.20
81895;DHT22;71358;45.642;13.758;2023-12-20T13:44:12;22.60;53.20
81895;DHT22;71358;45.642;13.758;2023-12-20T13:46:56;22.70;53.10
81895;DHT22;71358;45.642;13.758;2023-12-20T13:49:41;22.60;53.20
81895;DHT22;71358;45.642;13.758;2023-12-20T13:52:25;22.70;53.30
81895;DHT22;71358;45.642;13.758;2023-12-20T13:55:10;22.60;53.30
81895;DHT22;71358;45.642;13.758;2023-12-20T13:57:54;22.60;53.30
81895;DHT22;71358;45.642;13.758;2023-12-20T14:00:40;22.60;53.20
81895;DHT22;71358;45.642;13.758;2023-12-20T14:03:25;22.60;53.20
81895;DHT22;71358;45.642;13.758;2023-12-20T14:06:09;22.60;53.10
81895;DHT22;71358;45.642;13.758;2023-12-20T14:08:54;22.70;53.10
81895;DHT22;71358;45.642;13.758;2023-12-20T14:11:38;22.60;53.10
81895;DHT22;71358;45.642;13.758;2023-12-20T14:14:25;22.60;53.00
81895;DHT22;71358;45.642;13.758;2023-12-20T14:17:09;22.60;53.00
81895;DHT22;71358;45.642;13.758;2023-12-20T14:19:54;22.60;52.90
81895;DHT22;71358;45.642;13.758;2023-12-20T14:22:39;22.60;52.90
81895;DHT22;71358;45.642;13.758;2023-12-20T14:25:27;22.60;52.80
81895;DHT22;71358;45.642;13.758;2023-12-20T14:28:12;22.60;52.80
81895;DHT22;71358;45.642;13.758;2023-12-20T14:30:58;22.60;52.70
81895;DHT22;71358;45.642;13.758;2023-12-20T14:33:42;22.60;52.70
81895;DHT22;71358;45.642;13.758;2023-12-20T14:36:27;22.60;52.60
81895;DHT22;71358;45.642;13.758;2023-12-20T14:39:11;22.60;52.50
81895;DHT22;71358;45.642;13.758;2023-12-20T14:41:57;22.60;52.40
81895;DHT22;71358;45.642;13.758;2023-12-20T14:44:41;22.60;52.40
81895;DHT22;71358;45.642;13.758;2023-12-20T14:47:26;22.60;52.20
81895;DHT22;71358;45.642;13.758;2023-12-20T14:50:11;22.60;52.10
81895;DHT22;71358;45.642;13.758;2023-12-20T14:53:01;22.60;52.00
81895;DHT22;71358;45.642;13.758;2023-12-20T14:55:46;22.60;51.90
81895;DHT22;71358;45.642;13.758;2023-12-20T14:58:31;22.60;51.80
81895;DHT22;71358;45.642;13.758;2023-12-20T15:01:15;22.60;51.70
81895;DHT22;71358;45.642;13.758;2023-12-20T15:04:01;22.60;51.60
81895;DHT22;71358;45.642;13.758;2023-12-20T15:06:45;22.70;51.60
81895;DHT22;71358;45.642;13.758;2023-12-20T15:09:30;22.70;51.60
81895;DHT22;71358;45.642;13.758;2023-12-20T15:12:15;22.70;51.50
81895;DHT22;71358;45.642;13.758;2023-12-20T15:14:59;22.70;51.60
81895;DHT22;71358;45.642;13.758;2023-12-20T15:17:44;22.70;51.60
81895;DHT22;71358;45.642;13.758;2023-12-20T15:20:29;22.70;52.20
81895;DHT22;71358;45.642;13.758;2023-12-20T15:23:13;22.80;51.70
81895;DHT22;71358;45.642;13.758;2023-12-20T15:25:58;22.80;51.70
81895;DHT22;71358;45.642;13.758;2023-12-20T15:28:43;22.80;51.60
81895;DHT22;71358;45.642;13.758;2023-12-20T15:31:27;22.80;51.60
81895;DHT22;71358;45.642;13.758;2023-12-20T15:34:12;22.80;51.50
81895;DHT22;71358;45.642;13.758;2023-12-20T15:36:57;22.90;51.50
81895;DHT22;71358;45.642;13.758;2023-12-20T15:39:41;22.90;51.50
81895;DHT22;71358;45.642;13.758;2023-12-20T15:42:27;22.90;51.50
81895;DHT22;71358;45.642;13.758;2023-12-20T15:45:11;22.90;51.50
81895;DHT22;71358;45.642;13.758;2023-12-20T15:47:56;23.00;51.60
81895;DHT22;71358;45.642;13.758;2023-12-20T15:50:40;23.00;51.50
81895;DHT22;71358;45.642;13.758;2023-12-20T15:53:25;23.00;51.40
81895;DHT22;71358;45.642;13.758;2023-12-20T15:56:09;23.00;52.10
81895;DHT22;71358;45.642;13.758;2023-12-20T15:58:54;23.00;51.40
81895;DHT22;71358;45.642;13.758;2023-12-20T16:01:39;23.00;51.50
81895;DHT22;71358;45.642;13.758;2023-12-20T16:04:23;23.10;51.40
81895;DHT22;71358;45.642;13.758;2023-12-20T16:07:08;23.10;51.40
81895;DHT22;71358;45.642;13.758;2023-12-20T16:09:52;23.20;51.90
81895;DHT22;71358;45.642;13.758;2023-12-20T16:12:37;23.20;51.00
81895;DHT22;71358;45.642;13.758;2023-12-20T16:15:22;23.20;50.80
81895;DHT22;71358;45.642;13.758;2023-12-20T16:18:06;23.20;50.90
81895;DHT22;71358;45.642;13.758;2023-12-20T16:20:54;23.30;50.90
81895;DHT22;71358;45.642;13.758;2023-12-20T16:23:39;23.30;50.70
81895;DHT22;71358;45.642;13.758;2023-12-20T16:26:24;23.30;50.60
81895;DHT22;71358;45.642;13.758;2023-12-20T16:29:08;23.30;50.40
81895;DHT22;71358;45.642;13.758;2023-12-20T16:31:53;23.30;50.30
81895;DHT22;71358;45.642;13.758;2023-12-20T16:34:38;23.40;50.20
81895;DHT22;71358;45.642;13.758;2023-12-20T16:37:23;23.40;50.20
81895;DHT22;71358;45.642;13.758;2023-12-20T16:40:07;23.40;50.30
81895;DHT22;71358;45.642;13.758;2023-12-20T16:42:52;23.40;50.10
81895;DHT22;71358;45.642;13.758;2023-12-20T16:45:36;23.50;50.10
81895;DHT22;71358;45.642;13.758;2023-12-20T16:48:21;23.50;50.70
81895;DHT22;71358;45.642;13.758;2023-12-20T16:51:05;23.50;50.00
81895;DHT22;71358;45.642;13.758;2023-12-20T16:53:50;23.50;49.90
81895;DHT22;71358;45.642;13.758;2023-12-20T16:56:35;23.50;49.80
81895;DHT22;71358;45.642;13.758;2023-12-20T16:59:20;23.50;49.70
81895;DHT22;71358;45.642;13.758;2023-12-20T17:02:05;23.50;49.60
81895;DHT22;71358;45.642;13.758;2023-12-20T17:04:49;23.50;49.60
81895;DHT22;71358;45.642;13.758;2023-12-20T17:07:34;23.50;49.60
81895;DHT22;71358;45.642;13.758;2023-12-20T17:10:18;23.50;49.60
81895;DHT22;71358;45.642;13.758;2023-12-20T17:13:03;23.50;49.50